sensor_id;sensor_type;location;lat;lon;timestamp;pressure;altitude;pressure_sealevel;temperature;humidity
41078;BME280;26823;42.662;23.352;2023-05-20T00:00:37;95092.41;;;11.33;100.00
41078;BME280;26823;42.662;23.352;2023-05-20T00:03:02;95095.19;;;11.18;100.00
41078;BME280;26823;42.662;23.352;2023-05-20T00:05:35;95102.19;;;11.29;100.00
41078;BME280;26823;42.662;23.352;2023-05-20T00:08:00;95100.25;;;11.35;100.00
41078;BME280;26823;42.662;23.352;2023-05-20T00:10:28;95100.81;;;11.37;100.00
41078;BME280;26823;42.662;23.352;2023-05-20T00:12:54;95106.84;;;11.08;100.00
41078;BME280;26823;42.662;23.352;2023-05-20T00:15:19;95114.72;;;10.89;100.00
41078;BME280;26823;42.662;23.352;2023-05-20T00:17:44;95092.78;;;11.06;100.00
41078;BME280;26823;42.662;23.352;2023-05-20T00:20:10;95106.31;;;11.06;100.00
41078;BME280;26823;42.662;23.352;2023-05-20T00:22:35;95105.19;;;11.22;100.00
41078;BME280;26823;42.662;23.352;2023-05-20T00:25:01;95108.44;;;11.19;100.00
41078;BME280;26823;42.662;23.352;2023-05-20T00:27:26;95096.28;;;11.12;100.00
41078;BME280;26823;42.662;23.352;2023-05-20T00:29:52;95086.28;;;11.02;100.00
41078;BME280;26823;42.662;23.352;2023-05-20T00:32:17;95087.38;;;10.90;100.00
41078;BME280;26823;42.662;23.352;2023-05-20T00:34:42;95084.97;;;10.84;100.00
41078;BME280;26823;42.662;23.352;2023-05-20T00:37:10;95073.59;;;10.82;100.00
41078;BME280;26823;42.662;23.352;2023-05-20T00:39:36;95083.88;;;10.85;100.00
41078;BME280;26823;42.662;23.352;2023-05-20T00:42:01;95076.81;;;10.99;100.00
41078;BME280;26823;42.662;23.352;2023-05-20T00:44:27;95087.38;;;11.01;100.00
41078;BME280;26823;42.662;23.352;2023-05-20T00:46:54;95069.00;;;10.92;100.00
41078;BME280;26823;42.662;23.352;2023-05-20T00:49:20;95067.13;;;10.77;100.00
41078;BME280;26823;42.662;23.352;2023-05-20T00:51:47;95075.50;;;10.86;100.00
41078;BME280;26823;42.662;23.352;2023-05-20T00:54:13;95069.28;;;10.81;100.00
41078;BME280;26823;42.662;23.352;2023-05-20T00:56:39;95070.66;;;10.78;100.00
41078;BME280;26823;42.662;23.352;2023-05-20T00:59:05;95066.84;;;10.84;100.00
41078;BME280;26823;42.662;23.352;2023-05-20T01:01:30;95060.41;;;10.54;100.00
41078;BME280;26823;42.662;23.352;2023-05-20T01:03:56;95072.00;;;10.29;100.00
41078;BME280;26823;42.662;23.352;2023-05-20T01:06:21;95070.97;;;10.40;100.00
41078;BME280;26823;42.662;23.352;2023-05-20T01:08:46;95076.63;;;10.59;100.00
41078;BME280;26823;42.662;23.352;2023-05-20T01:11:28;95076.34;;;10.51;100.00
41078;BME280;26823;42.662;23.352;2023-05-20T01:14:02;95089.59;;;10.52;100.00
41078;BME280;26823;42.662;23.352;2023-05-20T01:16:31;95085.28;;;10.46;100.00
41078;BME280;26823;42.662;23.352;2023-05-20T01:18:58;95073.94;;;10.49;100.00
41078;BME280;26823;42.662;23.352;2023-05-20T01:21:26;95086.09;;;10.57;100.00
41078;BME280;26823;42.662;23.352;2023-05-20T01:23:58;95082.84;;;10.55;100.00
41078;BME280;26823;42.662;23.352;2023-05-20T01:26:25;95073.91;;;10.59;100.00
41078;BME280;26823;42.662;23.352;2023-05-20T01:28:51;95079.06;;;10.40;100.00
41078;BME280;26823;42.662;23.352;2023-05-20T01:31:23;95081.75;;;10.30;100.00
41078;BME280;26823;42.662;23.352;2023-05-20T01:33:54;95070.66;;;10.21;100.00
41078;BME280;26823;42.662;23.352;2023-05-20T01:36:22;95085.81;;;10.43;100.00
41078;BME280;26823;42.662;23.352;2023-05-20T01:38:48;95085.28;;;10.56;100.00
41078;BME280;26823;42.662;23.352;2023-05-20T01:41:15;95085.28;;;10.62;100.00
41078;BME280;26823;42.662;23.352;2023-05-20T01:43:42;95084.47;;;10.61;100.00
41078;BME280;26823;42.662;23.352;2023-05-20T01:46:08;95079.34;;;10.49;100.00
41078;BME280;26823;42.662;23.352;2023-05-20T01:48:33;95066.34;;;10.51;100.00
41078;BME280;26823;42.662;23.352;2023-05-20T01:50:59;95063.38;;;10.58;100.00
41078;BME280;26823;42.662;23.352;2023-05-20T01:53:24;95074.72;;;10.65;100.00
41078;BME280;26823;42.662;23.352;2023-05-20T01:55:49;95075.28;;;10.57;100.00
41078;BME280;26823;42.662;23.352;2023-05-20T01:58:15;95059.59;;;10.38;100.00
41078;BME280;26823;42.662;23.352;2023-05-20T02:00:40;95070.38;;;10.33;100.00
41078;BME280;26823;42.662;23.352;2023-05-20T02:03:06;95053.88;;;10.35;100.00
41078;BME280;26823;42.662;23.352;2023-05-20T02:05:31;95071.50;;;10.42;100.00
41078;BME280;26823;42.662;23.352;2023-05-20T02:07:59;95074.44;;;10.51;100.00
41078;BME280;26823;42.662;23.352;2023-05-20T02:10:25;95060.66;;;10.37;100.00
41078;BME280;26823;42.662;23.352;2023-05-20T02:12:50;95041.19;;;10.15;100.00
41078;BME280;26823;42.662;23.352;2023-05-20T02:15:16;95044.44;;;10.06;100.00
41078;BME280;26823;42.662;23.352;2023-05-20T02:17:41;95029.84;;;9.87;100.00
41078;BME280;26823;42.662;23.352;2023-05-20T02:20:08;95053.88;;;10.09;100.00
41078;BME280;26823;42.662;23.352;2023-05-20T02:22:34;95062.53;;;10.11;100.00
41078;BME280;26823;42.662;23.352;2023-05-20T02:25:00;95056.03;;;10.02;100.00
41078;BME280;26823;42.662;23.352;2023-05-20T02:27:25;95051.44;;;9.92;100.00
41078;BME280;26823;42.662;23.352;2023-05-20T02:29:50;95050.91;;;9.95;100.00
41078;BME280;26823;42.662;23.352;2023-05-20T02:32:16;95057.66;;;9.98;100.00
41078;BME280;26823;42.662;23.352;2023-05-20T02:34:41;95056.84;;;9.97;100.00
41078;BME280;26823;42.662;23.352;2023-05-20T02:37:07;95039.53;;;9.88;100.00
41078;BME280;26823;42.662;23.352;2023-05-20T02:39:32;95032.00;;;9.95;100.00
41078;BME280;26823;42.662;23.352;2023-05-20T02:41:57;95047.63;;;9.83;100.00
41078;BME280;26823;42.662;23.352;2023-05-20T02:44:23;95047.91;;;9.76;100.00
41078;BME280;26823;42.662;23.352;2023-05-20T02:46:48;95059.28;;;9.88;100.00
41078;BME280;26823;42.662;23.352;2023-05-20T02:49:14;95046.03;;;9.87;100.00
41078;BME280;26823;42.662;23.352;2023-05-20T02:51:39;95045.22;;;9.86;100.00
41078;BME280;26823;42.662;23.352;2023-05-20T02:54:05;95040.38;;;9.88;100.00
41078;BME280;26823;42.662;23.352;2023-05-20T02:56:30;95048.47;;;9.93;100.00
41078;BME280;26823;42.662;23.352;2023-05-20T02:58:56;95035.25;;;9.87;100.00
41078;BME280;26823;42.662;23.352;2023-05-20T03:01:22;95054.69;;;9.99;100.00
41078;BME280;26823;42.662;23.352;2023-05-20T03:03:47;95058.72;;;10.02;100.00
41078;BME280;26823;42.662;23.352;2023-05-20T03:06:13;95032.25;;;9.83;100.00
41078;BME280;26823;42.662;23.352;2023-05-20T03:08:38;95032.78;;;9.75;100.00
41078;BME280;26823;42.662;23.352;2023-05-20T03:11:06;95077.66;;;10.12;100.00
41078;BME280;26823;42.662;23.352;2023-05-20T03:13:32;95049.28;;;9.89;100.00
41078;BME280;26823;42.662;23.352;2023-05-20T03:15:59;95067.38;;;9.88;100.00
41078;BME280;26823;42.662;23.352;2023-05-20T03:18:25;95083.34;;;10.10;100.00
41078;BME280;26823;42.662;23.352;2023-05-20T03:20:51;95076.03;;;9.95;100.00
41078;BME280;26823;42.662;23.352;2023-05-20T03:23:16;95070.63;;;9.95;100.00
41078;BME280;26823;42.662;23.352;2023-05-20T03:25:41;95071.72;;;10.15;100.00
41078;BME280;26823;42.662;23.352;2023-05-20T03:28:07;95068.19;;;10.04;100.00
41078;BME280;26823;42.662;23.352;2023-05-20T03:30:32;95063.06;;;10.08;100.00
41078;BME280;26823;42.662;23.352;2023-05-20T03:32:58;95071.19;;;10.08;100.00
41078;BME280;26823;42.662;23.352;2023-05-20T03:35:24;95076.84;;;10.11;100.00
41078;BME280;26823;42.662;23.352;2023-05-20T03:37:49;95066.03;;;10.06;100.00
41078;BME280;26823;42.662;23.352;2023-05-20T03:40:19;95091.22;;;10.22;100.00
41078;BME280;26823;42.662;23.352;2023-05-20T03:42:45;95102.06;;;10.43;100.00
41078;BME280;26823;42.662;23.352;2023-05-20T03:45:11;95078.50;;;10.80;100.00
41078;BME280;26823;42.662;23.352;2023-05-20T03:47:36;95088.25;;;11.62;94.60
41078;BME280;26823;42.662;23.352;2023-05-20T03:50:02;95096.47;;;12.01;91.19
41078;BME280;26823;42.662;23.352;2023-05-20T03:52:27;95103.81;;;12.01;90.94
41078;BME280;26823;42.662;23.352;2023-05-20T03:54:53;95085.53;;;11.67;91.70
41078;BME280;26823;42.662;23.352;2023-05-20T03:57:18;95090.44;;;11.59;93.08
41078;BME280;26823;42.662;23.352;2023-05-20T03:59:44;95092.84;;;11.61;93.48
41078;BME280;26823;42.662;23.352;2023-05-20T04:02:09;95090.75;;;12.03;91.05
41078;BME280;26823;42.662;23.352;2023-05-20T04:04:35;95107.56;;;12.74;88.13
41078;BME280;26823;42.662;23.352;2023-05-20T04:07:02;95120.44;;;12.23;89.00
41078;BME280;26823;42.662;23.352;2023-05-20T04:09:29;95113.09;;;11.74;92.97
41078;BME280;26823;42.662;23.352;2023-05-20T04:11:54;95107.03;;;11.37;92.65
41078;BME280;26823;42.662;23.352;2023-05-20T04:14:20;95104.09;;;11.23;93.83
41078;BME280;26823;42.662;23.352;2023-05-20T04:16:45;95108.13;;;11.36;95.44
41078;BME280;26823;42.662;23.352;2023-05-20T04:19:11;95108.97;;;11.26;95.49
41078;BME280;26823;42.662;23.352;2023-05-20T04:21:37;95109.22;;;11.30;96.68
41078;BME280;26823;42.662;23.352;2023-05-20T04:24:02;95122.16;;;11.43;96.47
41078;BME280;26823;42.662;23.352;2023-05-20T04:26:28;95098.69;;;11.18;91.86
41078;BME280;26823;42.662;23.352;2023-05-20T04:28:54;95104.09;;;11.23;91.71
41078;BME280;26823;42.662;23.352;2023-05-20T04:31:23;95089.47;;;11.19;90.99
41078;BME280;26823;42.662;23.352;2023-05-20T04:33:51;95110.00;;;11.41;93.42
41078;BME280;26823;42.662;23.352;2023-05-20T04:36:17;95116.09;;;11.72;92.54
41078;BME280;26823;42.662;23.352;2023-05-20T04:38:42;95111.72;;;11.87;91.16
41078;BME280;26823;42.662;23.352;2023-05-20T04:41:09;95122.78;;;11.90;91.58
41078;BME280;26823;42.662;23.352;2023-05-20T04:43:35;95116.28;;;11.91;92.18
41078;BME280;26823;42.662;23.352;2023-05-20T04:46:03;95127.59;;;12.09;91.90
41078;BME280;26823;42.662;23.352;2023-05-20T04:48:30;95115.34;;;12.17;90.63
41078;BME280;26823;42.662;23.352;2023-05-20T04:50:58;95119.06;;;12.26;90.25
41078;BME280;26823;42.662;23.352;2023-05-20T04:53:30;95149.19;;;12.24;90.66
41078;BME280;26823;42.662;23.352;2023-05-20T04:55:56;95113.84;;;12.35;90.41
41078;BME280;26823;42.662;23.352;2023-05-20T04:58:22;95121.63;;;12.52;89.18
41078;BME280;26823;42.662;23.352;2023-05-20T05:00:49;95113.97;;;12.59;90.05
41078;BME280;26823;42.662;23.352;2023-05-20T05:03:15;95114.09;;;12.78;87.55
41078;BME280;26823;42.662;23.352;2023-05-20T05:05:41;95116.47;;;12.85;86.43
41078;BME280;26823;42.662;23.352;2023-05-20T05:08:08;95128.31;;;12.94;86.41
41078;BME280;26823;42.662;23.352;2023-05-20T05:10:35;95131.06;;;12.89;86.45
41078;BME280;26823;42.662;23.352;2023-05-20T05:13:01;95129.25;;;12.79;85.69
41078;BME280;26823;42.662;23.352;2023-05-20T05:15:26;95137.38;;;12.79;85.05
41078;BME280;26823;42.662;23.352;2023-05-20T05:17:52;95139.19;;;13.18;84.26
41078;BME280;26823;42.662;23.352;2023-05-20T05:20:18;95116.13;;;12.92;83.45
41078;BME280;26823;42.662;23.352;2023-05-20T05:22:44;95114.13;;;13.02;84.23
41078;BME280;26823;42.662;23.352;2023-05-20T05:25:10;95130.44;;;13.27;83.61
41078;BME280;26823;42.662;23.352;2023-05-20T05:27:36;95108.97;;;13.54;83.08
41078;BME280;26823;42.662;23.352;2023-05-20T05:30:05;95121.84;;;13.68;83.85
41078;BME280;26823;42.662;23.352;2023-05-20T05:32:31;95100.16;;;13.87;83.12
41078;BME280;26823;42.662;23.352;2023-05-20T05:34:57;95116.81;;;13.99;83.70
41078;BME280;26823;42.662;23.352;2023-05-20T05:37:23;95118.91;;;14.08;83.55
41078;BME280;26823;42.662;23.352;2023-05-20T05:39:48;95123.75;;;14.30;83.84
41078;BME280;26823;42.662;23.352;2023-05-20T05:42:14;95124.03;;;14.47;81.26
41078;BME280;26823;42.662;23.352;2023-05-20T05:44:39;95116.97;;;14.65;81.46
41078;BME280;26823;42.662;23.352;2023-05-20T05:47:05;95115.84;;;14.86;82.63
41078;BME280;26823;42.662;23.352;2023-05-20T05:49:31;95125.44;;;14.97;82.26
41078;BME280;26823;42.662;23.352;2023-05-20T05:51:57;95120.38;;;14.90;82.70
41078;BME280;26823;42.662;23.352;2023-05-20T05:54:25;95121.63;;;14.98;80.77
41078;BME280;26823;42.662;23.352;2023-05-20T05:56:51;95118.22;;;15.06;79.15
41078;BME280;26823;42.662;23.352;2023-05-20T05:59:16;95111.47;;;15.18;78.61
41078;BME280;26823;42.662;23.352;2023-05-20T06:01:42;95096.97;;;14.89;76.64
41078;BME280;26823;42.662;23.352;2023-05-20T06:04:07;95085.72;;;15.10;75.34
41078;BME280;26823;42.662;23.352;2023-05-20T06:06:32;95093.91;;;15.38;74.64
41078;BME280;26823;42.662;23.352;2023-05-20T06:08:58;95102.81;;;15.29;73.44
41078;BME280;26823;42.662;23.352;2023-05-20T06:11:23;95103.13;;;15.42;76.40
41078;BME280;26823;42.662;23.352;2023-05-20T06:13:49;95093.63;;;15.53;75.68
41078;BME280;26823;42.662;23.352;2023-05-20T06:16:15;95106.84;;;15.74;76.42
41078;BME280;26823;42.662;23.352;2023-05-20T06:18:41;95103.34;;;15.87;74.46
41078;BME280;26823;42.662;23.352;2023-05-20T06:21:06;95094.03;;;15.88;72.75
41078;BME280;26823;42.662;23.352;2023-05-20T06:23:32;95087.66;;;15.93;73.80
41078;BME280;26823;42.662;23.352;2023-05-20T06:25:58;95103.66;;;16.22;71.80
41078;BME280;26823;42.662;23.352;2023-05-20T06:28:25;95090.09;;;16.31;69.15
41078;BME280;26823;42.662;23.352;2023-05-20T06:30:50;95056.47;;;16.22;67.44
41078;BME280;26823;42.662;23.352;2023-05-20T06:33:26;95097.19;;;16.77;66.56
41078;BME280;26823;42.662;23.352;2023-05-20T06:35:54;95084.59;;;16.90;64.67
41078;BME280;26823;42.662;23.352;2023-05-20T06:38:21;95091.66;;;17.14;65.71
41078;BME280;26823;42.662;23.352;2023-05-20T06:40:49;95064.25;;;16.97;64.67
41078;BME280;26823;42.662;23.352;2023-05-20T06:43:17;95071.94;;;17.26;64.29
41078;BME280;26823;42.662;23.352;2023-05-20T06:45:43;95075.69;;;17.39;65.56
41078;BME280;26823;42.662;23.352;2023-05-20T06:48:15;95047.28;;;17.17;65.48
41078;BME280;26823;42.662;23.352;2023-05-20T06:50:40;95058.66;;;17.42;64.17
41078;BME280;26823;42.662;23.352;2023-05-20T06:53:06;95058.59;;;17.24;61.28
41078;BME280;26823;42.662;23.352;2023-05-20T06:55:31;95045.78;;;17.42;63.15
41078;BME280;26823;42.662;23.352;2023-05-20T06:57:56;95053.56;;;17.58;59.63
41078;BME280;26823;42.662;23.352;2023-05-20T07:00:22;95065.31;;;17.58;59.65
41078;BME280;26823;42.662;23.352;2023-05-20T07:02:48;95079.34;;;17.83;59.97
41078;BME280;26823;42.662;23.352;2023-05-20T07:05:16;95079.53;;;17.87;58.45
41078;BME280;26823;42.662;23.352;2023-05-20T07:07:41;95066.56;;;18.01;59.63
41078;BME280;26823;42.662;23.352;2023-05-20T07:10:10;95062.53;;;18.16;59.96
41078;BME280;26823;42.662;23.352;2023-05-20T07:12:36;95077.81;;;18.00;56.92
41078;BME280;26823;42.662;23.352;2023-05-20T07:15:01;95078.34;;;18.19;57.15
41078;BME280;26823;42.662;23.352;2023-05-20T07:17:26;95075.78;;;18.32;56.39
41078;BME280;26823;42.662;23.352;2023-05-20T07:19:54;95061.59;;;18.38;56.71
41078;BME280;26823;42.662;23.352;2023-05-20T07:22:20;95063.84;;;18.36;55.23
41078;BME280;26823;42.662;23.352;2023-05-20T07:24:46;95074.63;;;18.68;54.57
41078;BME280;26823;42.662;23.352;2023-05-20T07:27:11;95067.34;;;18.72;57.77
41078;BME280;26823;42.662;23.352;2023-05-20T07:29:37;95060.13;;;18.76;53.34
41078;BME280;26823;42.662;23.352;2023-05-20T07:32:03;95062.22;;;18.53;52.79
41078;BME280;26823;42.662;23.352;2023-05-20T07:34:31;95047.91;;;18.38;52.89
41078;BME280;26823;42.662;23.352;2023-05-20T07:36:57;95058.97;;;18.68;52.61
41078;BME280;26823;42.662;23.352;2023-05-20T07:39:25;95073.00;;;18.93;52.69
41078;BME280;26823;42.662;23.352;2023-05-20T07:41:51;95063.50;;;18.55;51.81
41078;BME280;26823;42.662;23.352;2023-05-20T07:44:16;95056.59;;;18.32;53.54
41078;BME280;26823;42.662;23.352;2023-05-20T07:46:46;95072.03;;;18.80;53.28
41078;BME280;26823;42.662;23.352;2023-05-20T07:49:12;95061.06;;;19.06;57.51
41078;BME280;26823;42.662;23.352;2023-05-20T07:51:37;95073.94;;;19.06;51.59
41078;BME280;26823;42.662;23.352;2023-05-20T07:54:03;95075.84;;;19.23;52.64
41078;BME280;26823;42.662;23.352;2023-05-20T07:56:28;95053.78;;;19.02;50.51
41078;BME280;26823;42.662;23.352;2023-05-20T07:58:57;95057.19;;;19.46;53.33
41078;BME280;26823;42.662;23.352;2023-05-20T08:01:24;95058.94;;;19.51;50.53
41078;BME280;26823;42.662;23.352;2023-05-20T08:03:50;95063.19;;;19.39;50.60
41078;BME280;26823;42.662;23.352;2023-05-20T08:06:15;95064.66;;;19.37;50.35
41078;BME280;26823;42.662;23.352;2023-05-20T08:08:41;95035.63;;;19.36;50.65
41078;BME280;26823;42.662;23.352;2023-05-20T08:11:07;95061.72;;;19.72;52.33
41078;BME280;26823;42.662;23.352;2023-05-20T08:13:35;95058.75;;;19.56;49.94
41078;BME280;26823;42.662;23.352;2023-05-20T08:16:01;95053.28;;;19.56;49.73
41078;BME280;26823;42.662;23.352;2023-05-20T08:18:30;95058.16;;;19.42;49.11
41078;BME280;26823;42.662;23.352;2023-05-20T08:20:57;95068.50;;;19.75;52.40
41078;BME280;26823;42.662;23.352;2023-05-20T08:23:23;95040.47;;;19.99;53.14
41078;BME280;26823;42.662;23.352;2023-05-20T08:25:49;95047.69;;;20.03;51.82
41078;BME280;26823;42.662;23.352;2023-05-20T08:28:15;95055.53;;;20.14;50.68
41078;BME280;26823;42.662;23.352;2023-05-20T08:30:41;95048.56;;;20.37;52.64
41078;BME280;26823;42.662;23.352;2023-05-20T08:33:06;95049.78;;;20.28;49.91
41078;BME280;26823;42.662;23.352;2023-05-20T08:35:32;95053.38;;;20.41;51.54
41078;BME280;26823;42.662;23.352;2023-05-20T08:37:57;95051.09;;;20.64;51.13
41078;BME280;26823;42.662;23.352;2023-05-20T08:40:23;95038.44;;;20.50;50.41
41078;BME280;26823;42.662;23.352;2023-05-20T08:42:49;95032.00;;;20.67;51.16
41078;BME280;26823;42.662;23.352;2023-05-20T08:45:19;95043.22;;;20.41;49.96
41078;BME280;26823;42.662;23.352;2023-05-20T08:47:51;95055.34;;;20.19;46.46
41078;BME280;26823;42.662;23.352;2023-05-20T08:50:17;95037.47;;;20.34;49.98
41078;BME280;26823;42.662;23.352;2023-05-20T08:52:46;95061.09;;;20.05;47.36
41078;BME280;26823;42.662;23.352;2023-05-20T08:55:59;95059.56;;;20.16;49.67
41078;BME280;26823;42.662;23.352;2023-05-20T08:58:34;95057.41;;;20.01;48.11
41078;BME280;26823;42.662;23.352;2023-05-20T09:01:00;95061.22;;;19.79;48.58
41078;BME280;26823;42.662;23.352;2023-05-20T09:03:27;95055.94;;;20.03;48.86
41078;BME280;26823;42.662;23.352;2023-05-20T09:06:06;95045.50;;;20.39;50.14
41078;BME280;26823;42.662;23.352;2023-05-20T09:08:33;95038.72;;;20.36;48.74
41078;BME280;26823;42.662;23.352;2023-05-20T09:10:59;95041.69;;;20.31;46.72
41078;BME280;26823;42.662;23.352;2023-05-20T09:13:26;95043.41;;;20.57;49.40
41078;BME280;26823;42.662;23.352;2023-05-20T09:15:52;95009.41;;;20.28;47.77
41078;BME280;26823;42.662;23.352;2023-05-20T09:18:17;95033.09;;;20.33;48.20
41078;BME280;26823;42.662;23.352;2023-05-20T09:20:46;95012.22;;;19.98;47.81
41078;BME280;26823;42.662;23.352;2023-05-20T09:23:12;95020.69;;;20.27;49.84
41078;BME280;26823;42.662;23.352;2023-05-20T09:25:38;94977.00;;;20.55;48.92
41078;BME280;26823;42.662;23.352;2023-05-20T09:28:05;95014.06;;;21.16;48.49
41078;BME280;26823;42.662;23.352;2023-05-20T09:30:31;95019.91;;;21.27;48.01
41078;BME280;26823;42.662;23.352;2023-05-20T09:32:58;94996.09;;;20.51;45.79
41078;BME280;26823;42.662;23.352;2023-05-20T09:35:25;95010.41;;;20.45;47.27
41078;BME280;26823;42.662;23.352;2023-05-20T09:37:55;95002.91;;;20.88;49.05
41078;BME280;26823;42.662;23.352;2023-05-20T09:40:27;95006.69;;;21.08;49.14
41078;BME280;26823;42.662;23.352;2023-05-20T09:42:55;95005.47;;;21.30;49.04
41078;BME280;26823;42.662;23.352;2023-05-20T09:45:21;94983.56;;;21.21;49.73
41078;BME280;26823;42.662;23.352;2023-05-20T09:47:49;94955.34;;;20.87;49.46
41078;BME280;26823;42.662;23.352;2023-05-20T09:50:16;94964.69;;;20.40;46.05
41078;BME280;26823;42.662;23.352;2023-05-20T09:52:46;95002.66;;;20.59;47.12
41078;BME280;26823;42.662;23.352;2023-05-20T09:55:13;94978.94;;;20.88;50.30
41078;BME280;26823;42.662;23.352;2023-05-20T09:57:39;94984.63;;;21.29;49.42
41078;BME280;26823;42.662;23.352;2023-05-20T10:00:06;94972.53;;;20.96;49.08
41078;BME280;26823;42.662;23.352;2023-05-20T10:02:33;94993.00;;;21.45;49.86
41078;BME280;26823;42.662;23.352;2023-05-20T10:05:06;94991.25;;;21.40;49.30
41078;BME280;26823;42.662;23.352;2023-05-20T10:10:43;94976.22;;;21.00;45.77
41078;BME280;26823;42.662;23.352;2023-05-20T10:13:24;94989.66;;;21.14;45.33
41078;BME280;26823;42.662;23.352;2023-05-20T10:16:40;94961.81;;;21.28;45.70
41078;BME280;26823;42.662;23.352;2023-05-20T10:21:33;94955.38;;;21.37;46.18
41078;BME280;26823;42.662;23.352;2023-05-20T10:24:07;94945.28;;;20.79;44.19
41078;BME280;26823;42.662;23.352;2023-05-20T10:26:37;94950.84;;;20.70;42.78
41078;BME280;26823;42.662;23.352;2023-05-20T10:29:16;94957.19;;;20.83;41.60
41078;BME280;26823;42.662;23.352;2023-05-20T10:31:49;94943.91;;;20.97;41.44
41078;BME280;26823;42.662;23.352;2023-05-20T10:34:16;94942.09;;;21.26;42.74
41078;BME280;26823;42.662;23.352;2023-05-20T10:39:25;94945.41;;;21.07;40.79
41078;BME280;26823;42.662;23.352;2023-05-20T10:41:51;94945.28;;;20.91;41.36
41078;BME280;26823;42.662;23.352;2023-05-20T10:44:17;94919.88;;;20.94;41.63
41078;BME280;26823;42.662;23.352;2023-05-20T10:46:42;94924.91;;;21.05;41.25
41078;BME280;26823;42.662;23.352;2023-05-20T10:49:16;94887.13;;;20.56;39.77
41078;BME280;26823;42.662;23.352;2023-05-20T10:51:46;94914.59;;;21.14;40.08
41078;BME280;26823;42.662;23.352;2023-05-20T10:54:12;94914.94;;;20.88;40.77
41078;BME280;26823;42.662;23.352;2023-05-20T10:56:50;94936.81;;;21.21;40.92
41078;BME280;26823;42.662;23.352;2023-05-20T10:59:16;94916.53;;;20.89;40.71
41078;BME280;26823;42.662;23.352;2023-05-20T11:01:42;94894.19;;;21.02;41.16
41078;BME280;26823;42.662;23.352;2023-05-20T11:04:08;94907.84;;;21.24;40.85
41078;BME280;26823;42.662;23.352;2023-05-20T11:06:36;94932.50;;;21.57;39.83
41078;BME280;26823;42.662;23.352;2023-05-20T11:09:05;94916.53;;;21.63;39.28
41078;BME280;26823;42.662;23.352;2023-05-20T11:11:31;94917.28;;;21.88;38.99
41078;BME280;26823;42.662;23.352;2023-05-20T11:13:56;94903.13;;;21.24;39.17
41078;BME280;26823;42.662;23.352;2023-05-20T11:16:22;94880.31;;;21.48;40.57
41078;BME280;26823;42.662;23.352;2023-05-20T11:18:49;94908.34;;;21.79;41.39
41078;BME280;26823;42.662;23.352;2023-05-20T11:21:14;94899.22;;;21.38;42.74
41078;BME280;26823;42.662;23.352;2023-05-20T11:23:40;94898.41;;;21.49;42.00
41078;BME280;26823;42.662;23.352;2023-05-20T11:26:06;94900.84;;;21.92;42.41
41078;BME280;26823;42.662;23.352;2023-05-20T11:28:34;94882.06;;;21.28;43.13
41078;BME280;26823;42.662;23.352;2023-05-20T11:30:59;94901.41;;;21.57;42.77
41078;BME280;26823;42.662;23.352;2023-05-20T11:33:25;94881.00;;;21.58;40.30
41078;BME280;26823;42.662;23.352;2023-05-20T11:35:55;94875.50;;;21.33;39.93
41078;BME280;26823;42.662;23.352;2023-05-20T11:38:21;94876.13;;;21.55;40.67
41078;BME280;26823;42.662;23.352;2023-05-20T11:40:50;94871.47;;;21.96;40.78
41078;BME280;26823;42.662;23.352;2023-05-20T11:43:16;94861.66;;;21.82;40.94
41078;BME280;26823;42.662;23.352;2023-05-20T11:45:45;94882.72;;;21.38;42.45
41078;BME280;26823;42.662;23.352;2023-05-20T11:48:11;94860.25;;;21.60;43.29
41078;BME280;26823;42.662;23.352;2023-05-20T11:50:43;94856.75;;;22.04;43.54
41078;BME280;26823;42.662;23.352;2023-05-20T11:53:17;94860.25;;;21.60;42.02
41078;BME280;26823;42.662;23.352;2023-05-20T11:55:54;94872.06;;;21.24;42.24
41078;BME280;26823;42.662;23.352;2023-05-20T11:58:23;94842.06;;;21.18;43.27
41078;BME280;26823;42.662;23.352;2023-05-20T12:00:49;94874.81;;;21.36;43.59
41078;BME280;26823;42.662;23.352;2023-05-20T12:03:15;94868.19;;;21.37;44.64
41078;BME280;26823;42.662;23.352;2023-05-20T12:05:41;94858.34;;;20.87;44.24
41078;BME280;26823;42.662;23.352;2023-05-20T12:08:10;94841.44;;;20.39;44.88
41078;BME280;26823;42.662;23.352;2023-05-20T12:10:35;94862.31;;;20.64;45.59
41078;BME280;26823;42.662;23.352;2023-05-20T12:13:04;94849.81;;;20.54;45.57
41078;BME280;26823;42.662;23.352;2023-05-20T12:15:34;94830.19;;;20.07;46.97
41078;BME280;26823;42.662;23.352;2023-05-20T12:17:59;94855.47;;;20.12;48.07
41078;BME280;26823;42.662;23.352;2023-05-20T12:20:25;94851.22;;;20.15;48.36
41078;BME280;26823;42.662;23.352;2023-05-20T12:22:51;94855.38;;;19.87;47.94
41078;BME280;26823;42.662;23.352;2023-05-20T12:25:17;94910.97;;;19.76;47.97
41078;BME280;26823;42.662;23.352;2023-05-20T12:27:44;94894.22;;;19.26;49.66
41078;BME280;26823;42.662;23.352;2023-05-20T12:30:14;94862.94;;;18.97;50.29
41078;BME280;26823;42.662;23.352;2023-05-20T12:32:40;94896.28;;;18.52;52.48
41078;BME280;26823;42.662;23.352;2023-05-20T12:35:06;94909.38;;;18.46;51.15
41078;BME280;26823;42.662;23.352;2023-05-20T12:37:31;94895.91;;;18.23;50.50
41078;BME280;26823;42.662;23.352;2023-05-20T12:39:58;94894.94;;;17.84;53.18
41078;BME280;26823;42.662;23.352;2023-05-20T12:42:23;94906.72;;;17.93;56.37
41078;BME280;26823;42.662;23.352;2023-05-20T12:44:49;94902.03;;;17.76;55.31
41078;BME280;26823;42.662;23.352;2023-05-20T12:47:14;94906.88;;;17.62;56.25
41078;BME280;26823;42.662;23.352;2023-05-20T12:49:40;94882.56;;;17.43;56.37
41078;BME280;26823;42.662;23.352;2023-05-20T12:52:05;94898.34;;;17.55;56.28
41078;BME280;26823;42.662;23.352;2023-05-20T12:54:31;94895.13;;;17.79;54.56